Time;durP1;ratioP1;P1;durP2;ratioP2;P2;SDS_P1;SDS_P2;PMS_P1;PMS_P2;Temp;Humidity;BMP_temperature;BMP_pressure;BME280_temperature;BME280_humidity;BME280_pressure;Samples;Min_cycle;Max_cycle;Signal;HPM_P1;HPM_P2
2022/12/20 00:01:25;;;;;;;62.40;26.10;;;;;;;-3.30;86.11;101061.14;1709701;83;25797;-47
2022/12/20 00:03:55;;;;;;;56.05;23.38;;;;;;;-3.28;86.28;101061.27;1709517;83;26023;-47
2022/12/20 00:06:23;;;;;;;54.88;23.70;;;;;;;-3.25;86.23;101045.48;1709699;83;27405;-47
2022/12/20 00:08:55;;;;;;;62.27;25.33;;;;;;;-3.22;86.38;101048.58;1709855;83;25628;-48
2022/12/20 06:45:34;;;;;;;38.92;18.17;;;;;;;-0.22;97.92;100776.98;1709629;83;25558;-45
2022/12/20 06:48:01;;;;;;;39.15;19.37;;;;;;;-0.21;98.08;100785.23;1710675;83;27312;-46
2022/12/20 06:50:28;;;;;;;40.05;18.30;;;;;;;-0.21;97.96;100788.41;1710594;83;26206;-44
2022/12/20 06:52:54;;;;;;;39.38;18.60;;;;;;;-0.21;97.88;100786.56;1710589;83;25552;-45
2022/12/20 06:55:21;;;;;;;40.58;18.62;;;;;;;-0.18;97.95;100784.52;1690199;83;25700;-48
2022/12/20 06:57:47;;;;;;;35.73;17.30;;;;;;;-0.18;97.86;100775.20;1710501;83;25637;-46
2022/12/20 07:00:16;;;;;;;41.60;18.80;;;;;;;-0.17;97.82;100780.30;1710645;83;27330;-47
2022/12/20 07:02:44;;;;;;;38.15;17.15;;;;;;;-0.16;97.75;100781.10;1710714;83;25543;-44
2022/12/20 07:05:10;;;;;;;40.08;17.05;;;;;;;-0.16;97.83;100786.42;1710663;83;25437;-46
2022/12/20 07:07:37;;;;;;;37.48;16.85;;;;;;;-0.17;97.83;100784.78;1710652;83;25622;-47
2022/12/20 07:10:05;;;;;;;36.55;17.52;;;;;;;-0.14;97.81;100789.13;1710666;83;25440;-47
2022/12/20 07:12:32;;;;;;;31.55;15.65;;;;;;;-0.12;97.75;100791.07;1710811;83;27377;-46
2022/12/20 07:14:59;;;;;;;37.15;19.25;;;;;;;-0.10;97.72;100798.30;1710605;83;25619;-44
2022/12/20 07:17:25;;;;;;;37.30;17.35;;;;;;;-0.08;97.65;100798.88;1710649;83;25491;-45
2022/12/20 07:19:52;;;;;;;37.40;17.32;;;;;;;-0.06;97.62;100794.67;1710622;83;25691;-45
2022/12/20 07:22:18;;;;;;;33.50;15.68;;;;;;;-0.05;97.67;100795.78;1710604;83;25565;-45
2022/12/20 07:24:46;;;;;;;31.82;15.30;;;;;;;-0.05;97.78;100794.45;1686254;83;27236;-46
2022/12/20 07:27:12;;;;;;;40.30;17.40;;;;;;;-0.03;97.67;100796.88;1710542;83;25822;-48
2022/12/20 07:29:40;;;;;;;38.08;17.57;;;;;;;-0.01;97.63;100791.61;1710679;83;25424;-46
2022/12/20 07:32:08;;;;;;;34.50;16.48;;;;;;;0.01;97.65;100791.92;1710590;83;27842;-45
2022/12/20 07:34:37;;;;;;;35.15;17.20;;;;;;;0.02;97.65;100799.67;1710702;83;25425;-45
2022/12/20 07:37:03;;;;;;;35.67;15.70;;;;;;;0.04;97.58;100787.48;1710868;83;27879;-48
2022/12/20 07:39:30;;;;;;;32.25;16.40;;;;;;;0.04;97.59;100789.61;1710589;83;25473;-45
2022/12/20 07:41:57;;;;;;;35.10;17.25;;;;;;;0.06;97.56;100786.73;1710676;83;25465;-45
2022/12/20 07:44:23;;;;;;;35.40;17.27;;;;;;;0.08;97.49;100791.30;1686075;83;25492;-48
2022/12/20 07:46:50;;;;;;;34.83;16.15;;;;;;;0.07;97.46;100781.69;1710653;83;25366;-45
2022/12/20 07:49:16;;;;;;;34.50;16.80;;;;;;;0.07;97.44;100783.84;1710620;83;27382;-45
2022/12/20 07:51:56;;;;;;;38.60;17.17;;;;;;;0.07;97.41;100782.52;1710563;83;25702;-46
2022/12/20 07:54:31;;;;;;;36.83;15.10;;;;;;;0.11;97.54;100784.20;1710687;83;25566;-46
2022/12/20 07:57:02;;;;;;;35.68;14.70;;;;;;;0.10;97.47;100782.07;1709375;83;26282;-47
2022/12/20 07:59:42;;;;;;;36.68;15.00;;;;;;;0.14;97.52;100786.41;1686365;83;25600;-45
2022/12/20 08:02:13;;;;;;;33.80;15.85;;;;;;;0.13;97.49;100778.12;1710783;83;27357;-47
2022/12/20 08:04:40;;;;;;;35.65;16.20;;;;;;;0.15;97.46;100780.03;1710601;83;25630;-48
2022/12/20 08:07:07;;;;;;;34.13;15.95;;;;;;;0.18;97.55;100784.91;1710638;83;25402;-47
2022/12/20 08:09:39;;;;;;;29.10;14.18;;;;;;;0.18;97.34;100783.58;1710609;83;25678;-46
2022/12/20 08:12:08;;;;;;;35.38;16.52;;;;;;;0.18;97.33;100789.70;1710687;83;25557;-45
2022/12/20 08:14:34;;;;;;;23.95;11.78;;;;;;;0.20;97.32;100782.83;1710736;83;27348;-46
2022/12/20 08:17:00;;;;;;;34.10;17.12;;;;;;;0.20;97.34;100778.83;1710514;83;25638;-45
2022/12/20 08:19:27;;;;;;;35.95;17.37;;;;;;;0.21;97.25;100784.45;1710618;83;25416;-46
2022/12/20 08:21:54;;;;;;;34.48;17.00;;;;;;;0.23;97.45;100782.37;1710703;83;25695;-46
2022/12/20 08:24:21;;;;;;;39.03;18.55;;;;;;;0.23;97.31;100787.70;1710823;83;25622;-45
2022/12/20 08:26:47;;;;;;;35.17;17.40;;;;;;;0.24;97.37;100782.68;1710854;83;27337;-47
2022/12/20 08:29:13;;;;;;;37.50;18.52;;;;;;;0.25;97.35;100787.47;1710806;83;25555;-47
2022/12/20 08:31:43;;;;;;;34.60;17.30;;;;;;;0.24;97.25;100784.50;1710789;83;25629;-48
2022/12/20 08:34:10;;;;;;;36.38;17.42;;;;;;;0.26;97.40;100767.81;1710726;83;26268;-45
2022/12/20 08:36:36;;;;;;;39.80;19.42;;;;;;;0.26;97.42;100763.83;1710792;83;25597;-47
2022/12/20 08:39:06;;;;;;;37.90;17.73;;;;;;;0.25;97.35;100761.66;1710741;83;26984;-46
2022/12/20 08:41:36;;;;;;;36.05;17.60;;;;;;;0.29;97.49;100764.17;1710701;83;25679;-46
2022/12/20 08:44:03;;;;;;;;;;;;;;;0.27;97.38;100759.58;1713229;83;25878;-46
2022/12/20 08:46:30;;;;;;;33.98;17.15;;;;;;;0.29;97.39;100762.02;1703360;83;25856;-47
2022/12/20 08:48:56;;;;;;;34.53;17.32;;;;;;;0.32;97.38;100768.22;1703440;83;25394;-46
2022/12/20 08:51:23;;;;;;;43.08;19.05;;;;;;;0.32;97.45;100768.22;1703383;84;27348;-46
2022/12/20 08:53:51;;;;;;;36.58;18.80;;;;;;;0.35;97.46;100757.92;1703308;84;25678;-46
2022/12/20 08:56:18;;;;;;;36.38;17.73;;;;;;;0.39;97.43;100764.12;1703373;84;25582;-46
2022/12/20 08:58:46;;;;;;;41.85;19.82;;;;;;;0.41;97.46;100764.20;1703314;84;25597;-47
2022/12/20 09:01:18;;;;;;;39.98;19.98;;;;;;;0.46;97.48;100764.81;1702975;84;25768;-50
2022/12/20 09:03:46;;;;;;;43.15;20.85;;;;;;;0.50;97.53;100771.31;1703271;84;27469;-45
2022/12/20 09:06:17;;;;;;;44.30;21.15;;;;;;;0.55;97.62;100769.58;1703581;84;25614;-46
2022/12/20 09:08:43;;;;;;;40.60;19.77;;;;;;;0.59;97.41;100766.46;1703407;84;25419;-45
2022/12/20 09:11:14;;;;;;;44.30;21.20;;;;;;;0.64;97.55;100768.71;1703341;84;25617;-47
2022/12/20 09:13:43;;;;;;;43.05;20.55;;;;;;;0.68;97.60;100771.22;1703451;84;25571;-44
2022/12/20 09:16:14;;;;;;;41.70;20.25;;;;;;;0.71;97.23;100773.39;1703496;84;27376;-45
2022/12/20 09:18:41;;;;;;;41.33;20.27;;;;;;;0.76;97.18;100767.91;1703295;84;25614;-47
2022/12/20 09:21:10;;;;;;;43.87;20.15;;;;;;;0.81;97.12;100768.83;1703101;84;25629;-47
2022/12/20 09:23:37;;;;;;;40.58;20.10;;;;;;;0.90;97.49;100769.28;1702139;84;25752;-47
2022/12/20 09:26:07;;;;;;;42.95;20.17;;;;;;;0.97;97.33;100768.66;1701948;84;25617;-46
2022/12/20 09:28:34;;;;;;;;;;;;;;;1.04;97.30;100779.17;1705317;84;27304;-47
2022/12/20 09:31:02;;;;;;;40.73;19.92;;;;;;;1.11;97.00;100765.23;1702904;84;25487;-47
2022/12/20 09:33:30;;;;;;;37.53;19.90;;;;;;;1.16;96.90;100767.17;1702969;84;25443;-46
2022/12/20 09:35:58;;;;;;;42.83;20.88;;;;;;;1.26;97.14;100766.05;1703143;84;25710;-46
2022/12/20 09:38:27;;;;;;;40.55;19.73;;;;;;;1.31;96.94;100766.15;1703381;84;25214;-46
2022/12/20 09:41:00;;;;;;;47.20;20.70;;;;;;;1.51;97.81;100767.09;1703682;84;28088;-46
2022/12/20 09:43:30;;;;;;;36.85;18.85;;;;;;;1.91;98.90;100763.58;1703320;84;25201;-46
2022/12/20 09:46:05;;;;;;;36.55;20.12;;;;;;;2.45;99.43;100760.46;1703534;83;25476;-49
2022/12/20 09:48:38;;;;;;;36.40;20.05;;;;;;;2.93;99.91;100758.25;1709819;83;25627;-45
2022/12/20 09:51:30;;;;;;;42.70;19.85;;;;;;;3.20;97.03;100753.50;1710753;83;25404;-46
2022/12/20 09:54:29;;;;;;;38.80;19.25;;;;;;;3.36;96.50;100741.95;1710744;83;27954;-48
2022/12/20 09:57:22;;;;;;;36.45;19.32;;;;;;;3.40;94.43;100743.05;1710052;83;25772;-46
2022/12/20 09:59:57;;;;;;;40.48;19.55;;;;;;;3.48;92.89;100739.94;1710684;83;25573;-46
2022/12/20 10:02:29;;;;;;;37.75;19.45;;;;;;;3.51;92.68;100742.66;1710626;83;26191;-47
2022/12/20 10:05:08;;;;;;;39.05;20.12;;;;;;;3.64;92.79;100751.60;1710756;83;25453;-47
2022/12/20 10:07:58;;;;;;;34.92;18.20;;;;;;;4.06;94.55;100752.30;1705997;83;27509;-48
2022/12/20 10:10:48;;;;;;;36.73;19.32;;;;;;;4.42;91.95;100757.15;1710635;83;25427;-47
2022/12/20 10:13:39;;;;;;;37.80;20.48;;;;;;;4.47;89.25;100762.00;1710257;83;25420;-47
2022/12/20 10:16:39;;;;;;;41.35;21.55;;;;;;;4.64;89.79;100752.48;1709929;83;25741;-48
2022/12/20 10:19:13;;;;;;;39.38;20.60;;;;;;;4.92;90.11;100746.50;1710622;83;25390;-49
2022/12/20 10:21:56;;;;;;;36.50;19.10;;;;;;;5.17;86.65;100735.62;1710179;83;27347;-47
2022/12/20 10:24:32;;;;;;;33.28;18.77;;;;;;;5.28;87.41;100743.98;1710642;83;25634;-48
2022/12/20 10:27:15;;;;;;;37.93;19.17;;;;;;;5.52;86.65;100749.70;1709500;83;25561;-48
2022/12/20 10:29:46;;;;;;;40.40;20.15;;;;;;;6.26;89.32;100753.61;1713574;83;25612;-47
2022/12/20 10:32:20;;;;;;;37.58;18.77;;;;;;;6.96;88.50;100751.64;1710709;83;25578;-48
2022/12/20 10:34:52;;;;;;;30.55;18.55;;;;;;;7.23;85.01;100749.94;1710732;83;27333;-47
2022/12/20 10:37:18;;;;;;;33.73;17.77;;;;;;;7.45;81.42;100744.98;1705969;83;25676;-49
2022/12/20 10:39:49;;;;;;;36.48;18.52;;;;;;;7.08;80.03;100757.00;1710655;83;25591;-51
2022/12/20 10:42:36;;;;;;;34.90;19.17;;;;;;;6.63;79.12;100739.88;1710666;83;26517;-48
2022/12/20 10:45:17;;;;;;;37.67;20.12;;;;;;;6.42;78.31;100736.42;1710746;83;25442;-48
2022/12/20 10:47:47;;;;;;;36.23;19.85;;;;;;;6.09;78.24;100746.61;1700813;83;27349;-49
2022/12/20 10:50:19;;;;;;;;;;;;;;;6.27;80.86;100740.45;1713142;83;25816;-49
2022/12/20 10:53:09;;;;;;;37.95;19.37;;;;;;;6.64;81.22;100729.41;1710888;83;25507;-52
2022/12/20 10:55:41;;;;;;;37.67;18.15;;;;;;;7.09;81.69;100722.27;1710818;83;25771;-51
2022/12/20 10:58:34;;;;;;;38.78;20.02;;;;;;;7.42;79.25;100719.17;1710676;83;25451;-48
2022/12/20 11:01:18;;;;;;;34.10;20.68;;;;;;;7.13;77.93;100710.97;1709710;83;27330;-49
2022/12/20 11:03:59;;;;;;;36.53;18.57;;;;;;;6.50;75.46;100722.44;1710664;83;25611;-48
2022/12/20 11:06:44;;;;;;;39.90;20.30;;;;;;;5.93;76.39;100717.57;1710695;83;25500;-48
2022/12/20 11:09:25;;;;;;;36.58;20.08;;;;;;;5.56;77.37;100713.20;1710621;83;25625;-49
2022/12/20 11:12:08;;;;;;;34.50;18.40;;;;;;;5.13;76.94;100709.06;1710824;83;25491;-51
2022/12/20 11:14:38;;;;;;;40.83;19.10;;;;;;;4.79;77.81;100700.86;1710301;83;28068;-49
2022/12/20 11:17:22;;;;;;;39.20;18.80;;;;;;;4.57;78.67;100698.31;1710700;83;25535;-48
2022/12/20 11:20:27;;;;;;;39.58;20.05;;;;;;;4.38;79.18;100687.76;1710006;83;25550;-49
2022/12/20 11:23:08;;;;;;;37.75;19.10;;;;;;;4.19;78.85;100675.28;1710717;83;25613;-49
2022/12/20 11:26:04;;;;;;;38.83;20.43;;;;;;;4.03;79.76;100670.35;1709095;83;25612;-47
2022/12/20 11:28:48;;;;;;;38.98;20.72;;;;;;;3.87;79.93;100666.75;1710702;83;27892;-53
2022/12/20 11:31:26;;;;;;;41.83;21.05;;;;;;;3.73;80.79;100658.34;1710689;83;25679;-48
2022/12/20 11:34:16;;;;;;;42.55;21.75;;;;;;;3.61;80.92;100655.83;1710366;83;25606;-50
2022/12/20 11:37:00;;;;;;;42.90;21.40;;;;;;;3.44;81.00;100665.29;1710683;83;25635;-48
2022/12/20 11:39:44;;;;;;;40.03;21.37;;;;;;;3.28;81.32;100668.84;1710362;83;25214;-47
2022/12/20 11:42:22;;;;;;;40.83;20.27;;;;;;;3.14;81.86;100671.11;1653771;86;27412;-47
2022/12/20 11:45:10;;;;;;;44.98;21.30;;;;;;;3.05;82.38;100669.41;1653426;86;25528;-50
2022/12/20 11:47:47;;;;;;;48.28;23.98;;;;;;;2.96;82.68;100665.03;1653809;86;25608;-49
2022/12/20 11:50:25;;;;;;;45.03;21.25;;;;;;;2.94;83.48;100660.44;1653756;84;25818;-48
2022/12/20 11:53:00;;;;;;;41.18;21.30;;;;;;;2.94;83.54;100660.44;1653836;86;25508;-48
2022/12/20 11:55:35;;;;;;;42.78;22.05;;;;;;;2.86;83.27;100662.23;1653472;86;27395;-50
2022/12/20 11:58:19;;;;;;;41.83;22.05;;;;;;;2.84;83.66;100658.17;1653264;86;25667;-50
2022/12/20 12:01:06;;;;;;;49.98;23.52;;;;;;;2.79;83.90;100662.92;1653991;86;25506;-50
2022/12/20 12:03:37;;;;;;;44.20;22.55;;;;;;;2.75;84.07;100652.46;1653976;86;26175;-49
2022/12/20 12:06:20;;;;;;;45.25;23.15;;;;;;;2.75;84.35;100647.92;1653809;85;25509;-49
2022/12/20 12:08:54;;;;;;;47.67;22.30;;;;;;;2.77;84.53;100645.00;1653986;86;26587;-49
2022/12/20 12:11:35;;;;;;;45.55;23.25;;;;;;;2.76;84.63;100646.08;1631117;86;25783;-49
2022/12/20 12:14:03;;;;;;;45.12;23.42;;;;;;;2.73;84.58;100647.90;1652419;86;25803;-49
2022/12/20 12:16:38;;;;;;;42.95;22.82;;;;;;;2.74;84.79;100653.00;1653661;86;25727;-48
2022/12/20 12:19:08;;;;;;;43.75;23.50;;;;;;;2.83;85.30;100651.20;1667547;83;25661;-49
2022/12/20 12:21:43;;;;;;;45.43;24.05;;;;;;;2.94;85.45;100652.95;1710049;83;27963;-51
2022/12/20 12:24:32;;;;;;;40.28;21.82;;;;;;;3.04;85.45;100641.59;1710759;83;25819;-50
2022/12/20 12:27:00;;;;;;;43.95;23.30;;;;;;;3.10;85.36;100637.89;1710962;83;25456;-49
2022/12/20 12:29:30;;;;;;;44.67;23.22;;;;;;;3.17;84.75;100637.20;1710865;83;25676;-49
2022/12/20 12:32:11;;;;;;;43.50;22.90;;;;;;;3.22;84.65;100637.25;1710847;83;25567;-49
2022/12/20 12:35:07;;;;;;;47.33;23.47;;;;;;;3.29;84.81;100639.19;1710760;83;27441;-53
2022/12/20 12:38:04;;;;;;;42.13;21.90;;;;;;;3.38;84.59;100641.42;1710283;83;25611;-49
2022/12/20 12:40:45;;;;;;;49.23;23.85;;;;;;;3.46;84.74;100640.97;1710817;83;25458;-51
2022/12/20 12:43:41;;;;;;;45.25;22.42;;;;;;;3.56;84.39;100642.41;1709087;83;25644;-49
2022/12/20 12:46:19;;;;;;;43.58;22.58;;;;;;;3.57;84.06;100639.98;1710717;83;25610;-50
2022/12/20 12:49:03;;;;;;;50.25;23.77;;;;;;;3.57;83.64;100648.55;1710491;83;27338;-51
2022/12/20 12:51:34;;;;;;;43.58;22.07;;;;;;;3.49;83.13;100651.97;1709575;83;25377;-49
2022/12/20 12:54:18;;;;;;;41.75;21.75;;;;;;;3.43;83.49;100652.97;1710779;83;25597;-52
2022/12/20 12:56:48;;;;;;;45.83;22.95;;;;;;;3.42;83.21;100653.22;1710745;83;25682;-50
2022/12/20 12:59:34;;;;;;;44.35;22.45;;;;;;;3.51;83.94;100651.18;1710770;83;25619;-48
2022/12/20 13:02:19;;;;;;;47.50;22.42;;;;;;;3.52;83.52;100635.92;1708306;83;27445;-49
2022/12/20 13:05:09;;;;;;;40.33;21.07;;;;;;;3.45;83.14;100635.33;1710723;83;25539;-49
2022/12/20 13:07:42;;;;;;;46.58;24.02;;;;;;;3.37;83.20;100643.27;1710815;83;25614;-48
2022/12/20 13:10:17;;;;;;;46.35;23.38;;;;;;;3.33;83.10;100651.52;1710775;83;25620;-50
2022/12/20 13:12:54;;;;;;;46.37;23.52;;;;;;;3.29;83.33;100668.60;1710280;83;25720;-50
2022/12/20 13:15:27;;;;;;;45.28;23.80;;;;;;;3.22;83.20;100655.14;1709277;83;27328;-50
2022/12/20 13:18:11;;;;;;;45.88;21.70;;;;;;;3.18;83.16;100655.66;1710015;83;25694;-48
2022/12/20 13:20:39;;;;;;;45.20;21.85;;;;;;;3.13;82.97;100662.80;1710493;83;25620;-51
2022/12/20 13:23:13;;;;;;;43.92;23.18;;;;;;;3.06;82.99;100670.20;1710343;83;26232;-52
2022/12/20 13:25:47;;;;;;;45.40;22.32;;;;;;;2.99;83.05;100671.72;1710412;83;25613;-49
2022/12/20 13:28:28;;;;;;;45.25;22.20;;;;;;;2.92;83.17;100669.77;1710797;83;28068;-48
2022/12/20 13:31:08;;;;;;;47.45;23.90;;;;;;;2.85;83.29;100687.32;1710746;83;25554;-49
2022/12/20 13:33:45;;;;;;;44.60;23.52;;;;;;;2.78;83.28;100678.69;1710788;83;25593;-49
2022/12/20 13:36:32;;;;;;;46.28;24.63;;;;;;;2.70;83.42;100668.42;1710443;83;26513;-50
2022/12/20 13:39:22;;;;;;;44.45;23.42;;;;;;;2.65;83.56;100677.70;1710942;83;25555;-48
2022/12/20 13:41:54;;;;;;;42.53;22.05;;;;;;;2.56;83.53;100676.78;1710815;83;27338;-49
2022/12/20 13:44:29;;;;;;;48.60;24.02;;;;;;;2.48;83.59;100675.86;1708565;83;25656;-49
2022/12/20 13:47:46;;;;;;;45.23;23.07;;;;;;;2.41;83.78;100677.91;1709546;83;25443;-50
2022/12/20 13:50:44;;;;;;;49.13;23.12;;;;;;;2.34;83.90;100683.41;1710742;83;27846;-50
2022/12/20 13:53:23;;;;;;;46.30;22.20;;;;;;;2.31;84.17;100692.44;1709777;83;25637;-50
2022/12/20 13:55:51;;;;;;;;;;;;;;;2.24;84.33;100687.27;1713311;83;27054;-50
2022/12/20 13:58:27;;;;;;;47.33;23.47;;;;;;;2.22;84.43;100681.36;1710626;83;25632;-47
2022/12/20 14:01:13;;;;;;;45.78;23.47;;;;;;;2.18;84.54;100679.71;1710339;83;25464;-48
2022/12/20 14:03:44;;;;;;;44.50;22.45;;;;;;;2.13;84.66;100678.30;1710737;83;26373;-52
2022/12/20 14:06:14;;;;;;;43.35;22.80;;;;;;;2.08;84.69;100675.55;1710868;83;25447;-48
2022/12/20 14:08:47;;;;;;;53.05;24.60;;;;;;;2.02;84.74;100671.97;1710598;83;27520;-47
2022/12/20 14:11:23;;;;;;;48.75;24.98;;;;;;;1.99;84.85;100671.14;1709620;83;25351;-51
2022/12/20 14:13:57;;;;;;;49.20;24.55;;;;;;;1.95;85.03;100669.20;1710764;83;25549;-48
2022/12/20 14:16:28;;;;;;;49.40;24.85;;;;;;;1.91;85.16;100659.53;1710677;83;25774;-48
2022/12/20 14:19:08;;;;;;;49.08;24.45;;;;;;;1.90;85.28;100659.77;1710717;83;25617;-48
2022/12/20 14:21:39;;;;;;;48.52;24.65;;;;;;;1.84;85.37;100653.02;1710715;83;27345;-48
2022/12/20 14:24:17;;;;;;;51.00;25.97;;;;;;;1.80;85.53;100639.87;1710693;83;25611;-48
2022/12/20 14:26:47;;;;;;;49.20;25.10;;;;;;;1.79;85.64;100633.47;1710094;83;25507;-48
2022/12/20 14:29:18;;;;;;;;;;;;;;;1.75;85.75;100631.78;1713240;83;25649;-49
2022/12/20 14:31:47;;;;;;;47.80;24.77;;;;;;;1.71;85.87;100628.53;1710761;83;25456;-49
2022/12/20 14:34:18;;;;;;;50.23;23.80;;;;;;;1.70;86.02;100634.90;1710798;83;27917;-51
2022/12/20 14:36:48;;;;;;;50.83;24.87;;;;;;;1.67;86.21;100642.34;1710441;83;25633;-48
2022/12/20 14:39:28;;;;;;;48.92;23.90;;;;;;;1.65;86.39;100633.78;1710796;83;25372;-48
2022/12/20 14:42:11;;;;;;;48.87;23.77;;;;;;;1.62;86.39;100637.45;1710694;83;25675;-48
2022/12/20 14:44:39;;;;;;;50.78;25.05;;;;;;;1.62;86.50;100639.58;1710755;83;25582;-49
2022/12/20 14:47:17;;;;;;;49.63;25.43;;;;;;;1.62;86.61;100641.45;1710688;83;27447;-49
2022/12/20 14:50:07;;;;;;;48.20;23.55;;;;;;;1.60;86.71;100638.19;1665413;84;25840;-49
2022/12/20 14:52:37;;;;;;;53.38;24.10;;;;;;;1.58;86.90;100637.09;1680963;84;25683;-54
2022/12/20 14:55:21;;;;;;;45.90;24.70;;;;;;;1.61;87.49;100642.48;1681105;85;25817;-54
2022/12/20 14:57:56;;;;;;;51.70;25.25;;;;;;;1.63;87.36;100635.05;1681226;84;25490;-50
2022/12/20 15:00:30;;;;;;;55.17;28.47;;;;;;;1.66;87.30;100631.91;1681102;85;27397;-50
2022/12/20 15:03:11;;;;;;;51.23;25.55;;;;;;;1.69;87.30;100635.43;1681143;85;25400;-50
2022/12/20 15:05:45;;;;;;;54.42;26.52;;;;;;;1.71;87.11;100628.53;1681171;84;25535;-49
2022/12/20 15:08:31;;;;;;;51.95;25.15;;;;;;;1.69;86.98;100630.09;1680989;85;25647;-51
2022/12/20 15:11:16;;;;;;;51.28;25.43;;;;;;;1.66;86.87;100621.23;1680802;84;25565;-49
2022/12/20 15:13:45;;;;;;;49.58;25.37;;;;;;;1.63;86.83;100613.72;1681010;85;27344;-49
2022/12/20 15:16:28;;;;;;;57.65;27.82;;;;;;;1.59;86.87;100609.93;1681220;85;25597;-47
2022/12/20 15:18:58;;;;;;;48.25;24.63;;;;;;;1.56;86.85;100611.20;1681116;84;25602;-50
2022/12/20 15:21:32;;;;;;;52.88;25.72;;;;;;;1.53;86.87;100608.22;1681128;85;25701;-48
2022/12/20 15:24:06;;;;;;;50.08;25.75;;;;;;;1.50;86.98;100605.52;1681191;84;25400;-47
2022/12/20 15:26:31;;;;;;;49.73;27.05;;;;;;;1.47;86.97;100607.33;1680696;84;27360;-48
2022/12/20 15:28:57;;;;;;;50.48;24.87;;;;;;;1.46;87.06;100600.37;1681118;85;25802;-48
2022/12/20 15:31:27;;;;;;;50.15;25.17;;;;;;;1.42;87.09;100598.71;1681362;84;25485;-48
2022/12/20 15:33:58;;;;;;;53.85;26.12;;;;;;;1.41;87.17;100602.95;1681285;85;26052;-48
2022/12/20 15:36:28;;;;;;;54.58;26.35;;;;;;;1.39;87.16;100603.19;1681281;85;25406;-49
2022/12/20 15:38:57;;;;;;;53.23;25.50;;;;;;;1.38;87.20;100600.75;1681254;85;27293;-50
2022/12/20 15:41:33;;;;;;;49.83;25.68;;;;;;;1.37;87.24;100600.48;1681342;84;25710;-49
2022/12/20 15:44:24;;;;;;;52.67;25.85;;;;;;;1.35;87.22;100600.73;1681198;85;25543;-48
2022/12/20 15:46:54;;;;;;;54.70;25.85;;;;;;;1.34;87.29;100603.63;1681240;85;25647;-49
2022/12/20 15:49:29;;;;;;;55.30;26.50;;;;;;;1.34;87.36;100609.76;1692251;83;25617;-53
2022/12/20 15:51:55;;;;;;;56.13;26.87;;;;;;;1.34;87.35;100593.77;1710885;82;27885;-49
2022/12/20 15:54:30;;;;;;;52.10;25.65;;;;;;;1.32;87.38;100593.20;1710755;83;25387;-49
2022/12/20 15:57:06;;;;;;;50.20;26.15;;;;;;;1.30;87.42;100594.77;1710830;83;25670;-49
2022/12/20 15:59:32;;;;;;;56.42;28.23;;;;;;;1.30;87.48;100597.44;1710598;83;25633;-48
2022/12/20 16:01:59;;;;;;;51.00;25.08;;;;;;;1.29;87.55;100594.51;1710794;83;25432;-48
2022/12/20 16:04:29;;;;;;;57.27;27.37;;;;;;;1.30;87.53;100587.31;1710784;83;27399;-48
2022/12/20 16:06:56;;;;;;;58.55;26.93;;;;;;;1.27;87.54;100591.78;1710786;83;25523;-48
2022/12/20 16:09:24;;;;;;;57.93;27.35;;;;;;;1.27;87.56;100592.58;1710777;83;25464;-49
2022/12/20 16:11:52;;;;;;;57.00;27.58;;;;;;;1.27;87.62;100587.78;1710971;83;25689;-49
2022/12/20 16:14:21;;;;;;;58.38;26.65;;;;;;;1.26;87.68;100588.31;1710809;83;25416;-50
2022/12/20 16:16:48;;;;;;;51.15;25.57;;;;;;;1.25;87.70;100589.89;1710933;83;27393;-52
2022/12/20 16:19:18;;;;;;;62.90;27.20;;;;;;;1.24;87.73;100593.59;1709335;83;25716;-50
2022/12/20 16:21:49;;;;;;;58.10;28.23;;;;;;;1.24;87.80;100590.42;1709921;83;25623;-49
2022/12/20 16:24:19;;;;;;;54.40;26.75;;;;;;;1.23;87.82;100583.99;1710789;83;26373;-50
2022/12/20 16:26:51;;;;;;;52.53;25.75;;;;;;;1.21;87.81;100578.91;1710834;83;25610;-52
2022/12/20 16:29:18;;;;;;;60.00;28.10;;;;;;;1.21;87.87;100590.06;1710748;83;27331;-49
2022/12/20 16:31:45;;;;;;;55.28;27.17;;;;;;;1.19;87.84;100582.84;1710697;83;25546;-52
2022/12/20 16:34:16;;;;;;;59.63;28.90;;;;;;;1.19;87.91;100576.17;1710737;83;25452;-49
2022/12/20 16:36:43;;;;;;;53.68;26.55;;;;;;;1.20;87.97;100589.80;1710764;83;25631;-49
2022/12/20 16:39:12;;;;;;;53.93;25.83;;;;;;;1.19;87.96;100592.16;1711006;83;25660;-51
2022/12/20 16:41:42;;;;;;;55.30;27.17;;;;;;;1.20;87.98;100592.45;1710705;83;27404;-50
2022/12/20 16:44:15;;;;;;;51.88;26.12;;;;;;;1.19;87.98;100596.98;1710748;83;25451;-50
2022/12/20 16:46:44;;;;;;;51.55;25.65;;;;;;;1.19;88.04;100596.16;1686526;83;25436;-50
2022/12/20 16:49:11;;;;;;;50.00;26.35;;;;;;;1.21;88.06;100584.23;1709676;83;25641;-50
2022/12/20 16:51:45;;;;;;;57.60;26.85;;;;;;;1.22;88.10;100589.83;1703470;84;25408;-50
2022/12/20 16:54:21;;;;;;;57.43;27.40;;;;;;;1.23;88.10;100595.98;1703440;84;27400;-51
2022/12/20 16:56:54;;;;;;;57.40;27.73;;;;;;;1.23;88.20;100594.66;1703362;84;25459;-52
2022/12/20 16:59:22;;;;;;;55.78;28.27;;;;;;;1.29;88.57;100591.02;1703275;84;25627;-50
2022/12/20 17:01:52;;;;;;;;;;;;;;;1.33;88.44;100585.50;1705887;84;25623;-50
2022/12/20 17:04:21;;;;;;;46.13;24.23;;;;;;;1.36;88.43;100589.00;1703625;83;25480;-50
2022/12/20 17:06:50;;;;;;;;;;;;;;;1.36;88.24;100578.34;1705933;84;27390;-50
2022/12/20 17:09:19;;;;;;;53.23;25.77;;;;;;;1.35;88.09;100571.94;1703330;84;25567;-52
2022/12/20 17:11:48;;;;;;;53.00;27.35;;;;;;;1.35;88.09;100574.61;1703565;84;25465;-52
2022/12/20 17:14:17;;;;;;;57.58;28.52;;;;;;;1.35;88.11;100578.07;1703447;84;25687;-51
2022/12/20 17:16:42;;;;;;;55.10;28.38;;;;;;;1.34;88.11;100587.10;1687061;84;25432;-49
2022/12/20 17:19:09;;;;;;;57.23;27.45;;;;;;;1.34;88.16;100584.44;1703360;84;27325;-50
2022/12/20 17:21:47;;;;;;;57.80;28.80;;;;;;;1.30;88.14;100561.45;1703217;84;25792;-49
2022/12/20 17:24:20;;;;;;;57.53;27.70;;;;;;;1.36;88.21;100569.54;1703181;84;25559;-50
2022/12/20 17:26:48;;;;;;;55.10;27.77;;;;;;;1.36;88.24;100583.66;1703389;84;25606;-48
2022/12/20 17:29:16;;;;;;;53.58;26.68;;;;;;;1.38;88.25;100590.09;1703392;84;25630;-51
2022/12/20 17:31:46;;;;;;;62.33;28.02;;;;;;;1.38;88.29;100575.44;1703397;84;27319;-51
2022/12/20 17:34:20;;;;;;;57.13;27.60;;;;;;;1.38;88.34;100566.10;1703382;84;25744;-50
2022/12/20 17:36:51;;;;;;;51.55;27.55;;;;;;;1.39;88.29;100569.06;1703394;84;25408;-49
2022/12/20 17:39:18;;;;;;;53.50;27.87;;;;;;;1.38;88.30;100550.11;1686762;84;26010;-51
2022/12/20 17:41:50;;;;;;;54.48;26.87;;;;;;;1.39;88.30;100543.20;1687078;84;25668;-52
2022/12/20 17:44:24;;;;;;;52.15;26.77;;;;;;;1.39;88.30;100517.09;1703378;84;27384;-55
2022/12/20 17:46:53;;;;;;;56.90;27.90;;;;;;;1.38;88.27;100506.13;1703326;84;27212;-49
2022/12/20 17:49:22;;;;;;;;;;;;;;;1.39;88.29;100539.21;1690118;83;25472;-52
2022/12/20 17:51:51;;;;;;;54.20;26.42;;;;;;;1.39;88.33;100545.87;1710869;83;25488;-53
2022/12/20 17:54:22;;;;;;;57.98;27.62;;;;;;;1.38;88.34;100542.94;1710763;83;25585;-56
2022/12/20 17:56:52;;;;;;;53.13;26.93;;;;;;;1.40;88.41;100550.17;1710335;83;29431;-51
2022/12/20 17:59:21;;;;;;;58.50;27.80;;;;;;;1.40;88.36;100556.83;1710641;83;25558;-53
2022/12/20 18:01:48;;;;;;;52.03;26.33;;;;;;;1.41;88.41;100556.30;1710249;83;25660;-53
2022/12/20 18:04:16;;;;;;;57.10;27.75;;;;;;;1.41;88.41;100561.09;1710351;83;26469;-51
2022/12/20 18:06:45;;;;;;;56.70;28.17;;;;;;;1.42;88.40;100558.72;1710722;83;25600;-50
2022/12/20 18:09:17;;;;;;;57.03;26.52;;;;;;;1.42;88.39;100558.72;1710892;83;27346;-51
2022/12/20 18:11:46;;;;;;;53.50;27.02;;;;;;;1.45;88.39;100550.78;1710711;83;25567;-54
2022/12/20 18:14:15;;;;;;;48.20;25.75;;;;;;;1.43;88.31;100544.36;1710950;83;25491;-50
2022/12/20 18:16:43;;;;;;;51.18;26.12;;;;;;;1.44;88.37;100551.29;1710684;83;26176;-51
2022/12/20 18:19:19;;;;;;;57.65;28.32;;;;;;;1.44;88.37;100550.49;1710717;83;25396;-53
2022/12/20 18:21:47;;;;;;;54.27;26.40;;;;;;;1.46;88.33;100541.72;1710736;83;28381;-55
2022/12/20 18:24:18;;;;;;;59.63;28.45;;;;;;;1.46;88.41;100548.38;1710563;83;25514;-53